Clarkton, North Carolina
Current Conditions -  °F | °C
As of 3:35 PM on Tuesday 21 Oct 2014 (Local Time) from KEYF Reporting Station
Clear Clear  
Wind Chill: 77°   Ceiling: Unl
Heat Index: 78°   Visibility: 10mi
Dew Point: 47°   Wind: 8mph
Humidity: 34%   Direction: 300°WNW
Pressure: 29.84"   Gusts: NA
Location:  34.49°N, 78.66°W
Report Text: KEYF 211935Z AUTO 30007KT 260V320 10SM CLR 25/08 A2984 RMK AO2 T02500081
Loading
Personal Weather Stations






























Interactive Weather Map
Tropical Storm Tracking
New forecast layout! Learn more

10-Day Weather Forecast

Advertisements
Track Severe Weather on mobile